createdAt,value
2019-02-06T00:01:21.078Z,133.25
2019-02-06T00:03:49.549Z,146.80
2019-02-06T00:06:18.228Z,144.20
2019-02-06T00:08:46.916Z,149.50
2019-02-06T00:11:15.399Z,145.30
2019-02-06T00:13:44.191Z,169.43
2019-02-06T00:16:12.671Z,133.80
2019-02-06T00:18:41.370Z,160.28
2019-02-06T00:21:09.768Z,167.60
2019-02-06T00:23:38.528Z,152.05
2019-02-06T00:26:07.309Z,175.45
2019-02-06T00:28:35.779Z,179.12
2019-02-06T00:34:12.543Z,154.45
2019-02-06T00:36:41.288Z,167.57
2019-02-06T00:39:09.844Z,172.05
2019-02-06T00:41:38.236Z,175.18
2019-02-06T00:44:06.868Z,170.15
2019-02-06T00:46:35.602Z,156.18
2019-02-06T00:52:12.314Z,171.50
2019-02-06T00:54:40.716Z,151.75
2019-02-06T00:57:09.131Z,181.67
2019-02-06T00:59:37.578Z,175.20
2019-02-06T01:02:05.977Z,170.40
2019-02-06T01:04:34.387Z,178.80
2019-02-06T01:07:02.785Z,184.30
2019-02-06T01:09:31.503Z,173.02
2019-02-06T01:11:59.899Z,183.45
2019-02-06T01:14:28.587Z,173.07
2019-02-06T01:16:57.315Z,173.32
2019-02-06T01:19:25.731Z,177.22
2019-02-06T01:21:54.126Z,171.80
2019-02-06T01:24:41.880Z,206.78
2019-02-06T01:27:31.587Z,179.00
2019-02-06T01:30:00.230Z,184.18
2019-02-06T01:32:30.431Z,193.55
2019-02-06T01:34:59.075Z,173.78
2019-02-06T01:37:27.483Z,183.93
2019-02-06T01:39:56.060Z,172.32
2019-02-06T01:42:24.724Z,189.37
2019-02-06T01:44:53.125Z,177.62
2019-02-06T01:47:21.534Z,195.95
2019-02-06T01:49:49.939Z,164.85
2019-02-06T01:52:18.335Z,206.40
2019-02-06T01:54:46.744Z,170.20
2019-02-06T01:57:15.409Z,192.87
2019-02-06T01:59:43.820Z,161.37
2019-02-06T02:02:12.224Z,169.53
2019-02-06T02:04:40.637Z,178.87
2019-02-06T02:07:09.084Z,178.70
2019-02-06T02:09:37.811Z,169.20
2019-02-06T02:12:07.943Z,164.03
2019-02-06T02:14:36.718Z,180.18
2019-02-06T02:17:05.138Z,187.72
2019-02-06T02:19:33.770Z,176.22
2019-02-06T02:22:02.184Z,170.97
2019-02-06T04:37:06.200Z,125.33
2019-02-06T04:39:27.470Z,133.43
2019-02-06T04:41:56.161Z,132.03
2019-02-06T04:44:24.556Z,139.32
2019-02-06T04:47:04.995Z,141.92
2019-02-06T04:49:33.685Z,149.23
2019-02-06T04:54:58.556Z,141.50
2019-02-06T05:01:01.643Z,130.45
2019-02-06T05:03:30.443Z,125.70
2019-02-06T05:05:59.089Z,135.07
2019-02-06T05:08:27.599Z,128.12
2019-02-06T05:10:55.972Z,134.67
2019-02-06T05:13:24.634Z,137.35
2019-02-06T05:16:12.384Z,134.47
2019-02-06T05:18:40.782Z,128.23
2019-02-06T05:21:09.187Z,129.05
2019-02-06T05:23:37.590Z,131.32
2019-02-06T05:26:05.986Z,141.15
2019-02-06T05:28:34.674Z,137.95
2019-02-06T05:31:03.080Z,127.80
2019-02-06T05:33:33.474Z,129.68
2019-02-06T05:36:01.893Z,146.13
2019-02-06T05:38:30.578Z,134.97
2019-02-06T05:40:58.943Z,160.70
2019-02-06T05:43:27.355Z,126.33
2019-02-06T05:45:55.751Z,131.75
2019-02-06T05:48:24.146Z,122.60
2019-02-06T05:50:53.070Z,130.43
2019-02-06T05:53:21.427Z,141.47
2019-02-06T05:55:50.069Z,122.33
2019-02-06T05:58:18.464Z,134.27
2019-02-06T06:03:26.512Z,139.85
2019-02-06T06:05:54.911Z,135.12
2019-02-06T06:08:23.318Z,142.50
2019-02-06T06:10:51.964Z,132.87
2019-02-06T06:13:20.644Z,137.07
2019-02-06T06:15:49.049Z,134.60
2019-02-06T06:18:17.525Z,130.18
2019-02-06T06:20:45.935Z,138.77
2019-02-06T06:23:14.672Z,127.30
2019-02-06T06:25:43.358Z,137.30
2019-02-06T06:28:11.752Z,138.57
2019-02-06T06:30:40.156Z,131.05
2019-02-06T06:33:08.563Z,138.97
2019-02-06T06:35:36.950Z,117.47
2019-02-06T06:38:05.427Z,142.03
2019-02-06T06:40:33.820Z,155.00
2019-02-06T06:43:02.521Z,132.90
2019-02-06T06:45:30.927Z,156.00
2019-02-06T06:47:59.391Z,125.18
2019-02-06T06:50:27.973Z,126.10
2019-02-06T06:52:56.377Z,126.78
2019-02-06T06:55:26.767Z,122.80
2019-02-06T06:57:55.175Z,120.13
2019-02-06T07:00:42.922Z,132.87
2019-02-06T07:03:11.553Z,128.05
2019-02-06T07:05:39.953Z,118.20
2019-02-06T07:08:12.753Z,141.30
2019-02-06T07:10:38.849Z,124.10
2019-02-06T07:13:07.257Z,126.12
2019-02-06T07:15:36.019Z,134.05
2019-02-06T07:21:18.433Z,117.97
2019-02-06T07:23:46.875Z,115.90
2019-02-06T07:26:15.254Z,121.97
2019-02-06T07:28:43.826Z,115.72
2019-02-06T07:31:12.234Z,126.87
2019-02-06T07:33:40.698Z,109.05
2019-02-06T07:36:09.435Z,119.28
2019-02-06T07:38:37.888Z,113.68
2019-02-06T07:41:06.299Z,117.00
2019-02-06T07:43:34.978Z,120.65
2019-02-06T07:46:45.014Z,125.25
2019-02-06T07:49:13.414Z,123.13
2019-02-06T07:51:41.807Z,112.83
2019-02-06T07:54:10.211Z,135.22
2019-02-06T07:56:38.606Z,111.17
2019-02-06T07:59:07.019Z,139.75
2019-02-06T08:01:35.422Z,128.47
2019-02-06T08:04:04.094Z,128.35
2019-02-06T08:06:32.795Z,131.30
2019-02-06T08:11:52.277Z,120.80
2019-02-06T08:14:20.677Z,118.60
2019-02-06T08:16:49.070Z,126.10
2019-02-06T08:19:17.817Z,121.30
2019-02-06T08:21:49.590Z,123.30
2019-02-06T08:24:16.758Z,114.75
2019-02-06T08:26:45.221Z,119.55
2019-02-06T08:29:13.895Z,125.58
2019-02-06T08:31:42.366Z,128.47
2019-02-06T08:34:11.072Z,133.18
2019-02-06T08:36:39.573Z,117.15
2019-02-06T08:39:48.125Z,117.15
2019-02-06T08:42:16.518Z,122.60
2019-02-06T08:44:46.629Z,114.72
2019-02-06T08:47:15.037Z,122.50
2019-02-06T08:49:43.742Z,127.90
2019-02-06T08:52:12.379Z,124.67
2019-02-06T08:54:41.036Z,139.55
2019-02-06T08:57:09.621Z,122.17
2019-02-06T08:59:38.035Z,131.10
2019-02-06T09:02:06.582Z,140.62
2019-02-06T09:04:34.987Z,120.05
2019-02-06T09:07:03.471Z,129.53
2019-02-06T09:09:32.113Z,129.63
2019-02-06T09:12:00.531Z,131.35
2019-02-06T09:14:29.178Z,124.22
2019-02-06T09:16:59.610Z,154.30
2019-02-06T09:19:28.018Z,132.20
2019-02-06T09:21:56.411Z,122.80
2019-02-06T09:24:24.816Z,124.30
2019-02-06T09:26:53.212Z,124.58
2019-02-06T09:29:21.620Z,134.12
2019-02-06T09:31:50.020Z,146.30
2019-02-06T09:34:18.419Z,120.62
2019-02-06T09:36:46.956Z,128.68
2019-02-06T09:39:15.358Z,136.47
2019-02-06T09:41:43.990Z,130.20
2019-02-06T09:44:12.685Z,125.15
2019-02-06T09:46:53.501Z,130.45
2019-02-06T09:49:21.905Z,120.65
2019-02-06T09:51:50.607Z,116.08
2019-02-06T09:54:19.007Z,123.72
2019-02-06T09:56:50.468Z,115.92
2019-02-06T09:59:17.522Z,125.50
2019-02-06T10:01:46.190Z,138.50
2019-02-06T10:04:14.894Z,124.20
2019-02-06T10:06:43.339Z,128.12
2019-02-06T10:09:22.298Z,105.63
2019-02-06T10:11:42.144Z,120.45
2019-02-06T10:14:10.840Z,104.85
2019-02-06T10:16:58.880Z,123.87
2019-02-06T10:19:27.288Z,118.95
2019-02-06T10:21:55.676Z,99.85
2019-02-06T10:24:24.063Z,103.42
2019-02-06T10:26:52.545Z,118.15
2019-02-06T10:29:20.947Z,109.70
2019-02-06T10:31:49.875Z,121.10
2019-02-06T10:34:18.519Z,94.80
2019-02-06T10:36:47.167Z,99.40
2019-02-06T10:39:16.062Z,124.65
2019-02-06T10:41:44.531Z,103.32
2019-02-06T10:44:32.547Z,100.35
2019-02-06T10:47:00.945Z,102.47
2019-02-06T10:49:29.662Z,112.20
2019-02-06T10:51:58.056Z,104.78
2019-02-06T10:54:26.452Z,110.95
2019-02-06T10:56:54.857Z,103.20
2019-02-06T10:59:23.516Z,128.00
2019-02-06T11:01:51.925Z,110.90
2019-02-06T11:04:20.582Z,88.12
2019-02-06T11:06:49.263Z,98.25
2019-02-06T11:09:17.659Z,86.92
2019-02-06T11:11:46.333Z,108.10
2019-02-06T11:14:14.864Z,101.27
2019-02-06T11:16:44.977Z,90.60
2019-02-06T11:19:13.369Z,93.03
2019-02-06T11:21:42.099Z,111.08
2019-02-06T11:24:10.781Z,108.42
2019-02-06T11:26:39.320Z,100.67
2019-02-06T11:29:08.052Z,94.07
2019-02-06T11:31:36.737Z,88.62
2019-02-06T11:34:05.275Z,85.95
2019-02-06T11:36:34.007Z,90.05
2019-02-06T11:41:38.119Z,88.55
2019-02-06T11:44:25.620Z,89.90
2019-02-06T11:46:54.351Z,82.25
2019-02-06T11:52:12.203Z,83.22
2019-02-06T11:54:41.095Z,78.25
2019-02-06T11:57:09.878Z,84.45
2019-02-06T11:59:38.277Z,79.87
2019-02-06T12:02:06.691Z,84.07
2019-02-06T12:04:35.097Z,83.62
2019-02-06T12:10:09.045Z,90.53
2019-02-06T12:12:28.063Z,92.78
2019-02-06T12:14:56.739Z,81.45
2019-02-06T12:17:25.159Z,85.55
2019-02-06T12:22:41.092Z,81.30
2019-02-06T12:25:49.396Z,99.90
2019-02-06T12:28:17.853Z,84.90
2019-02-06T12:30:46.633Z,105.32
2019-02-06T12:33:15.271Z,82.37
2019-02-06T12:35:43.683Z,81.12
2019-02-06T12:38:12.415Z,82.50
2019-02-06T12:40:40.908Z,72.32
2019-02-06T12:43:10.605Z,79.27
2019-02-06T12:45:39.993Z,75.25
2019-02-06T12:48:08.856Z,73.85
2019-02-06T12:50:37.355Z,76.87
2019-02-06T12:53:05.836Z,70.08
2019-02-06T12:55:53.821Z,83.30
2019-02-06T12:58:22.259Z,73.17
2019-02-06T13:00:51.008Z,73.62
2019-02-06T13:03:19.711Z,61.60
2019-02-06T13:05:48.127Z,71.75
2019-02-06T13:08:17.331Z,78.85
2019-02-06T13:10:46.964Z,66.67
2019-02-06T13:13:17.186Z,66.65
2019-02-06T13:15:47.406Z,73.40
2019-02-06T13:21:03.190Z,57.25
2019-02-06T13:23:50.928Z,72.55
2019-02-06T13:26:19.355Z,69.10
2019-02-06T13:28:47.741Z,59.33
2019-02-06T13:31:16.406Z,55.85
2019-02-06T13:33:44.813Z,59.42
2019-02-06T13:36:13.200Z,57.73
2019-02-06T13:38:41.601Z,57.90
2019-02-06T13:41:10.327Z,66.77
2019-02-06T13:43:39.015Z,58.95
2019-02-06T13:46:07.560Z,61.95
2019-02-06T13:48:36.030Z,54.35
2019-02-06T13:53:59.053Z,66.87
2019-02-06T13:56:27.464Z,54.80
2019-02-06T13:58:55.868Z,55.77
2019-02-06T14:01:25.754Z,55.25
2019-02-06T14:03:54.654Z,58.90
2019-02-06T14:06:23.117Z,35.80
2019-02-06T14:08:51.761Z,34.87
2019-02-06T14:11:20.389Z,41.73
2019-02-06T14:13:48.806Z,36.03
2019-02-06T14:16:17.277Z,31.80
2019-02-06T14:18:46.252Z,31.80
2019-02-06T14:21:14.661Z,35.63
2019-02-06T14:24:23.256Z,38.67
2019-02-06T14:27:30.440Z,48.63
2019-02-06T14:30:37.517Z,33.85
2019-02-06T14:33:46.095Z,51.35
2019-02-06T14:36:54.735Z,28.70
2019-02-06T14:40:01.717Z,31.63
2019-02-06T14:43:08.706Z,27.87
2019-02-06T14:46:15.688Z,39.23
2019-02-06T14:49:22.918Z,40.00
2019-02-06T14:52:31.305Z,46.70
2019-02-06T14:55:39.874Z,40.98
2019-02-06T14:58:48.433Z,35.03
2019-02-06T15:01:56.990Z,35.10
2019-02-06T15:05:05.371Z,37.25
2019-02-06T15:08:13.906Z,33.80
2019-02-06T15:11:21.154Z,38.07
2019-02-06T15:14:30.718Z,27.60
2019-02-06T15:17:37.971Z,32.98
2019-02-06T15:20:46.349Z,30.33
2019-02-06T15:23:54.941Z,33.57
2019-02-06T15:27:02.104Z,31.97
2019-02-06T15:30:10.409Z,31.20
2019-02-06T15:33:17.394Z,33.83
2019-02-06T15:36:24.385Z,24.82
2019-02-06T15:39:32.705Z,38.92
2019-02-06T15:42:39.938Z,34.80
2019-02-06T15:45:46.947Z,36.50
2019-02-06T15:48:55.499Z,34.78
2019-02-06T15:52:04.861Z,45.25
2019-02-06T15:55:11.483Z,42.78
2019-02-06T15:58:20.013Z,48.15
2019-02-06T16:01:09.481Z,41.98
2019-02-06T16:04:35.589Z,45.83
2019-02-06T16:07:43.937Z,61.80
2019-02-06T16:10:50.942Z,62.43
2019-02-06T16:13:59.567Z,66.05
2019-02-06T16:17:06.650Z,65.52
2019-02-06T16:20:13.652Z,76.30
2019-02-06T16:23:21.971Z,54.77
2019-02-06T16:26:28.959Z,64.42
2019-02-06T16:29:37.575Z,81.95
2019-02-06T16:32:44.817Z,59.35
2019-02-06T16:35:52.086Z,65.72
2019-02-06T16:38:59.320Z,86.45
2019-02-06T16:42:07.792Z,77.03
2019-02-06T16:45:15.045Z,71.28
2019-02-06T16:48:23.370Z,74.77
2019-02-06T16:51:30.650Z,98.35
2019-02-06T16:54:37.889Z,100.55
2019-02-06T16:57:45.320Z,80.00
2019-02-06T17:00:53.868Z,62.55
2019-02-06T17:04:00.867Z,93.80
2019-02-06T17:07:09.222Z,86.22
2019-02-06T17:10:16.749Z,77.67
2019-02-06T17:13:25.323Z,93.20
2019-02-06T17:16:32.301Z,65.83
2019-02-06T17:25:42.243Z,90.28
2019-02-06T17:28:50.543Z,78.52
2019-02-06T17:31:57.786Z,94.25
2019-02-06T17:35:06.158Z,81.40
2019-02-06T17:38:13.376Z,91.50
2019-02-06T17:41:21.975Z,109.75
2019-02-06T17:44:29.232Z,98.45
2019-02-06T17:47:37.822Z,81.45
2019-02-06T17:50:46.418Z,84.92
2019-02-06T17:53:53.437Z,96.47
2019-02-06T17:56:22.081Z,107.00
2019-02-06T17:58:50.775Z,103.53
2019-02-06T18:01:59.331Z,75.78
2019-02-06T18:04:27.990Z,93.87
2019-02-06T18:06:56.999Z,95.87
2019-02-06T18:09:25.723Z,111.12
2019-02-06T18:11:54.127Z,95.67
2019-02-06T18:14:22.770Z,92.40
2019-02-06T18:16:51.526Z,99.87
2019-02-06T18:19:19.913Z,94.07
2019-02-06T18:21:48.585Z,104.72
2019-02-06T18:24:17.223Z,99.85
2019-02-06T18:26:45.999Z,90.47
2019-02-06T18:29:14.651Z,95.15
2019-02-06T18:31:43.282Z,81.57
2019-02-06T18:34:12.025Z,106.65
2019-02-06T18:36:40.680Z,101.95
2019-02-06T18:39:48.993Z,109.45
2019-02-06T18:42:17.394Z,99.87
2019-02-06T18:44:45.854Z,114.12
2019-02-06T18:47:14.276Z,108.47
2019-02-06T18:49:44.458Z,121.92
2019-02-06T18:52:20.242Z,100.45
2019-02-06T18:54:43.561Z,104.07
2019-02-06T18:57:12.216Z,133.32
2019-02-06T18:59:40.689Z,103.97
2019-02-06T19:02:09.258Z,95.47
2019-02-06T19:04:37.836Z,110.48
2019-02-06T19:07:06.532Z,122.05
2019-02-06T19:09:35.025Z,104.55
2019-02-06T19:15:18.013Z,115.52
2019-02-06T19:18:26.726Z,131.05
2019-02-06T19:20:55.125Z,125.07
2019-02-06T19:23:23.541Z,117.15
2019-02-06T19:25:53.945Z,145.75
2019-02-06T19:28:22.348Z,119.42
2019-02-06T19:30:50.778Z,129.97
2019-02-06T19:33:19.179Z,142.03
2019-02-06T19:35:47.591Z,126.25
2019-02-06T19:38:16.385Z,119.05
2019-02-06T19:40:44.793Z,124.05
2019-02-06T19:43:13.457Z,118.42
2019-02-06T19:45:41.933Z,118.05
2019-02-06T19:48:16.330Z,133.93
2019-02-06T19:51:20.376Z,147.65
2019-02-06T19:53:49.215Z,142.32
2019-02-06T19:56:17.628Z,117.77
2019-02-06T19:58:46.023Z,122.50
2019-02-06T20:01:14.686Z,129.47
2019-02-06T20:03:43.088Z,128.57
2019-02-06T20:08:47.168Z,132.97
2019-02-06T20:11:15.839Z,127.92
2019-02-06T20:13:44.513Z,132.57
2019-02-06T20:16:13.165Z,137.05
2019-02-06T20:18:41.834Z,138.22
2019-02-06T20:21:10.476Z,137.15
2019-02-06T20:23:39.114Z,123.13
2019-02-06T20:26:07.794Z,130.30
2019-02-06T20:28:37.932Z,128.78
2019-02-06T20:31:06.409Z,140.68
2019-02-06T20:33:35.061Z,134.52
2019-02-06T20:36:03.719Z,146.43
2019-02-06T20:38:32.365Z,150.10
2019-02-06T20:41:00.781Z,135.28
2019-02-06T20:43:30.888Z,127.92
2019-02-06T20:45:59.642Z,127.62
2019-02-06T20:48:28.038Z,136.75
2019-02-06T20:50:56.449Z,137.30
2019-02-06T20:53:24.854Z,150.72
2019-02-06T20:55:53.267Z,141.90
2019-02-06T20:58:21.922Z,165.47
2019-02-06T21:00:50.585Z,140.65
2019-02-06T21:03:18.990Z,131.20
2019-02-06T21:05:47.408Z,156.87
2019-02-06T21:08:16.057Z,136.68
2019-02-06T21:10:44.709Z,140.57
2019-02-06T21:13:13.139Z,128.27
2019-02-06T21:15:41.784Z,169.80
2019-02-06T21:18:10.204Z,137.68
2019-02-06T21:20:39.161Z,143.20
2019-02-06T21:23:07.572Z,143.90
2019-02-06T21:25:36.236Z,126.10
2019-02-06T21:28:04.949Z,117.80
2019-02-06T21:31:13.269Z,130.00
2019-02-06T21:33:41.916Z,122.45
2019-02-06T21:36:10.612Z,137.75
2019-02-06T21:41:21.890Z,148.75
2019-02-06T21:43:50.548Z,156.32
2019-02-06T21:46:18.975Z,133.72
2019-02-06T21:48:47.449Z,150.93
2019-02-06T21:51:16.181Z,129.45
2019-02-06T21:53:44.594Z,150.35
2019-02-06T21:56:13.002Z,145.22
2019-02-06T21:58:41.845Z,148.17
2019-02-06T22:01:10.246Z,140.68
2019-02-06T22:03:38.671Z,159.72
2019-02-06T22:06:07.383Z,142.50
2019-02-06T22:08:35.801Z,141.45
2019-02-06T22:11:04.343Z,129.85
2019-02-06T22:13:34.466Z,120.40
2019-02-06T22:16:02.888Z,123.25
2019-02-06T22:18:31.292Z,143.52
2019-02-06T22:20:59.706Z,138.50
2019-02-06T22:23:28.361Z,125.47
2019-02-06T22:25:56.764Z,147.47
2019-02-06T22:28:25.434Z,125.50
2019-02-06T22:30:53.841Z,137.90
2019-02-06T22:33:22.270Z,144.45
2019-02-06T22:35:50.710Z,122.05
2019-02-06T22:38:19.133Z,132.10
2019-02-06T22:40:47.538Z,129.35
2019-02-06T22:43:15.956Z,138.07
2019-02-06T22:45:46.084Z,120.00
2019-02-06T22:48:14.744Z,144.65
2019-02-06T22:50:43.163Z,131.10
2019-02-06T22:53:11.813Z,137.10
2019-02-06T22:55:40.479Z,143.47
2019-02-06T22:58:08.910Z,134.82
2019-02-06T23:01:19.185Z,128.27
2019-02-06T23:03:47.753Z,118.35
2019-02-06T23:06:35.524Z,124.67
2019-02-06T23:12:12.153Z,120.37
2019-02-06T23:14:40.628Z,121.35
2019-02-06T23:17:09.031Z,111.22
2019-02-06T23:19:37.682Z,107.55
2019-02-06T23:22:06.643Z,113.55
2019-02-06T23:24:35.346Z,108.03
2019-02-06T23:27:05.638Z,102.65
2019-02-06T23:29:34.110Z,97.45
2019-02-06T23:32:02.774Z,111.12
2019-02-06T23:34:31.410Z,111.60
2019-02-06T23:37:00.216Z,123.58
2019-02-06T23:39:28.612Z,93.35
2019-02-06T23:41:59.012Z,106.00
2019-02-06T23:44:29.198Z,118.80
2019-02-06T23:46:58.036Z,119.42
2019-02-06T23:49:26.692Z,108.65
2019-02-06T23:51:55.339Z,117.33
2019-02-06T23:54:23.744Z,118.90
2019-02-06T23:56:54.163Z,107.83
2019-02-06T23:59:22.811Z,117.25
